Time;durP1;ratioP1;P1;durP2;ratioP2;P2;SDS_P1;SDS_P2;PMS_P1;PMS_P2;Temp;Humidity;BMP_temperature;BMP_pressure;BME280_temperature;BME280_humidity;BME280_pressure;Samples;Min_cycle;Max_cycle;Signal;HPM_P1;HPM_P2
2024/01/18 00:01:34;;;;;;;2.47;0.90;;;3.60;99.90;;;;;;5032116;28;20075;-78
2024/01/18 00:04:00;;;;;;;2.50;0.70;;;3.70;99.90;;;;;;5069560;28;20060;-80
2024/01/18 00:06:27;;;;;;;1.95;0.82;;;3.00;99.90;;;;;;5071041;28;20041;-75
2024/01/18 00:08:52;;;;;;;2.67;1.00;;;2.90;99.90;;;;;;5054523;28;20522;-78
2024/01/18 00:11:18;;;;;;;2.22;1.08;;;3.20;99.90;;;;;;5069672;28;20053;-77
2024/01/18 00:13:44;;;;;;;4.20;1.92;;;2.80;99.90;;;;;;5054498;28;20563;-77
2024/01/18 00:16:10;;;;;;;2.85;1.13;;;3.50;99.90;;;;;;5054666;28;20554;-78
2024/01/18 00:18:36;;;;;;;3.85;1.30;;;3.00;99.90;;;;;;5053925;28;20055;-83
2024/01/18 00:21:03;;;;;;;5.30;1.35;;;2.80;99.90;;;;;;5053247;28;20040;-77
2024/01/18 00:23:28;;;;;;;3.30;0.80;;;3.00;99.90;;;;;;5053594;28;20136;-79
2024/01/18 00:25:54;;;;;;;3.50;1.00;;;2.80;99.90;;;;;;5034282;28;20139;-76
2024/01/18 00:28:20;;;;;;;2.40;0.90;;;2.60;1.00;;;;;;5050635;28;20098;-77
2024/01/18 00:30:46;;;;;;;2.83;0.98;;;2.80;1.00;;;;;;5056340;28;20041;-78
2024/01/18 00:33:11;;;;;;;3.67;0.68;;;2.90;38.30;;;;;;5021359;28;20484;-78
2024/01/18 00:35:37;;;;;;;2.50;1.05;;;3.10;99.90;;;;;;5047659;28;20049;-82
2024/01/18 00:38:03;;;;;;;3.80;0.90;;;4.00;1.00;;;;;;5054130;28;20044;-77
2024/01/18 00:40:28;;;;;;;4.50;1.27;;;2.70;1.00;;;;;;5068569;28;20041;-78
2024/01/18 00:42:54;;;;;;;3.03;1.40;;;3.10;1.00;;;;;;5052804;28;20040;-81
2024/01/18 00:45:20;;;;;;;4.35;0.95;;;4.00;99.90;;;;;;5070154;28;20136;-77
2024/01/18 00:47:46;;;;;;;3.45;1.10;;;2.70;99.90;;;;;;5037541;28;20040;-78
2024/01/18 00:50:11;;;;;;;2.95;1.63;;;3.10;99.90;;;;;;5054162;28;20518;-79
2024/01/18 00:52:37;;;;;;;4.00;1.58;;;3.10;99.90;;;;;;5036909;28;20045;-77
2024/01/18 00:55:04;;;;;;;3.33;1.65;;;2.70;99.90;;;;;;5050819;28;20075;-79
2024/01/18 00:57:30;;;;;;;5.18;1.80;;;3.00;99.90;;;;;;5069867;28;20428;-75
2024/01/18 00:59:55;;;;;;;10.00;2.83;;;3.00;1.00;;;;;;5053888;28;20045;-77
2024/01/18 01:02:21;;;;;;;7.50;4.00;;;3.30;99.90;;;;;;5044018;28;20037;-79
2024/01/18 01:04:47;;;;;;;8.27;5.20;;;2.50;99.90;;;;;;5061876;28;20045;-76
2024/01/18 01:07:13;;;;;;;10.27;5.45;;;2.60;99.90;;;;;;5053611;28;20037;-77
2024/01/18 01:09:39;;;;;;;7.97;5.63;;;2.70;99.90;;;;;;5053348;28;20128;-79
2024/01/18 01:12:05;;;;;;;11.63;6.05;;;2.40;99.90;;;;;;5047203;28;20191;-78
2024/01/18 01:14:31;;;;;;;7.60;5.57;;;2.30;99.90;;;;;;5039903;28;20045;-78
2024/01/18 01:16:56;;;;;;;11.77;6.82;;;3.10;99.90;;;;;;5070123;28;20040;-78
2024/01/18 01:19:22;;;;;;;9.25;5.95;;;2.40;99.90;;;;;;5019713;28;20043;-78
2024/01/18 01:21:48;;;;;;;11.55;6.57;;;2.40;99.90;;;;;;5068758;28;20044;-79
2024/01/18 01:24:13;;;;;;;10.57;6.38;;;2.50;99.90;;;;;;5084483;28;20045;-77
2024/01/18 01:26:39;;;;;;;11.18;7.03;;;2.30;99.90;;;;;;5052755;28;20036;-81
2024/01/18 01:29:05;;;;;;;9.52;7.35;;;2.20;99.90;;;;;;5053610;28;20037;-78
2024/01/18 01:31:31;;;;;;;12.15;7.38;;;2.60;99.90;;;;;;5052569;28;20052;-77
2024/01/18 01:33:57;;;;;;;14.30;8.18;;;2.10;99.90;;;;;;5037657;28;20454;-79
2024/01/18 01:36:22;;;;;;;11.38;7.22;;;2.60;99.90;;;;;;5065582;28;20064;-80
2024/01/18 01:38:48;;;;;;;12.27;6.55;;;2.40;99.90;;;;;;5053589;28;20048;-77
2024/01/18 01:41:14;;;;;;;10.98;7.32;;;3.00;1.00;;;;;;5069877;28;20493;-75
2024/01/18 01:43:59;;;;;;;9.65;6.68;;;2.40;1.00;;;;;;5031370;28;20568;-76
2024/01/18 01:46:26;;;;;;;9.52;7.03;;;2.70;9.00;;;;;;5029278;28;20066;-80
2024/01/18 01:49:02;;;;;;;10.20;6.85;;;2.50;1.00;;;;;;5069586;28;20462;-77
2024/01/18 01:51:37;;;;;;;10.40;6.47;;;2.80;1.00;;;;;;5068172;28;20139;-76
2024/01/18 01:54:04;;;;;;;7.72;6.35;;;2.90;58.60;;;;;;5041323;28;20045;-77
2024/01/18 01:56:32;;;;;;;9.88;6.40;;;2.70;1.00;;;;;;5043956;28;20497;-80
2024/01/18 01:58:58;;;;;;;8.70;5.28;;;2.40;1.00;;;;;;5036062;28;20074;-80
2024/01/18 02:01:25;;;;;;;7.60;3.70;;;2.40;99.90;;;;;;5052241;28;20090;-77
2024/01/18 02:03:51;;;;;;;6.25;3.70;;;2.80;1.00;;;;;;5046072;28;20040;-77
2024/01/18 02:06:17;;;;;;;7.10;3.60;;;4.00;1.00;;;;;;5039257;28;20040;-77
2024/01/18 02:08:45;;;;;;;11.75;4.30;;;2.70;1.00;;;;;;5051916;28;20865;-76
2024/01/18 02:11:11;;;;;;;10.70;3.97;;;2.90;99.90;;;;;;5019400;28;20067;-76
2024/01/18 02:13:39;;;;;;;7.65;3.55;;;3.00;99.90;;;;;;5047976;28;20525;-79
2024/01/18 02:16:05;;;;;;;11.02;3.58;;;3.80;99.90;;;;;;5051196;28;20044;-76
2024/01/18 02:18:31;;;;;;;7.68;2.78;;;3.00;99.90;;;;;;5035820;28;20427;-81
2024/01/18 02:20:57;;;;;;;6.00;2.17;;;3.00;99.90;;;;;;5052658;28;20040;-81
2024/01/18 02:23:27;;;;;;;6.70;2.83;;;3.30;99.90;;;;;;5046232;28;20037;-79
2024/01/18 02:25:53;;;;;;;9.57;2.75;;;3.40;99.90;;;;;;5052454;28;20110;-77
2024/01/18 02:28:19;;;;;;;5.57;2.45;;;3.70;99.90;;;;;;5068620;28;20040;-80
2024/01/18 02:30:44;;;;;;;4.60;1.70;;;3.10;37.10;;;;;;5052107;28;20032;-77
2024/01/18 02:33:10;;;;;;;4.53;2.10;;;3.10;1.00;;;;;;5031021;28;20461;-79
2024/01/18 02:35:36;;;;;;;4.00;1.80;;;3.00;1.00;;;;;;5067962;28;20044;-77
2024/01/18 02:38:02;;;;;;;4.40;2.08;;;2.90;1.00;;;;;;5052102;28;20568;-78
2024/01/18 02:40:28;;;;;;;5.20;1.90;;;3.00;99.90;;;;;;5031452;28;20060;-80
2024/01/18 02:42:54;;;;;;;5.38;2.00;;;3.00;69.30;;;;;;5049728;28;20032;-80
2024/01/18 02:45:21;;;;;;;4.30;1.73;;;2.70;37.00;;;;;;5068270;28;20593;-78
2024/01/18 02:47:46;;;;;;;6.28;2.08;;;2.90;29.40;;;;;;5051473;28;20036;-82
2024/01/18 02:50:12;;;;;;;5.90;2.30;;;2.50;99.90;;;;;;5068530;28;20557;-79
2024/01/18 02:52:39;;;;;;;4.07;2.03;;;2.40;99.90;;;;;;5045494;28;20043;-78
2024/01/18 02:55:06;;;;;;;7.07;1.90;;;2.50;99.90;;;;;;5015892;28;20044;-77
2024/01/18 02:57:31;;;;;;;9.05;2.35;;;2.40;99.90;;;;;;5050526;28;20053;-78
2024/01/18 02:59:57;;;;;;;5.70;2.22;;;2.80;99.90;;;;;;5051732;28;20046;-81
2024/01/18 03:02:24;;;;;;;5.30;2.00;;;2.90;99.90;;;;;;5051385;28;20040;-79
2024/01/18 03:04:50;;;;;;;6.93;2.03;;;2.30;99.90;;;;;;5063343;28;20048;-78
2024/01/18 03:07:15;;;;;;;8.43;1.95;;;2.50;99.90;;;;;;5048145;28;20043;-78
2024/01/18 03:09:41;;;;;;;5.75;2.20;;;2.90;99.90;;;;;;5067597;28;20068;-78
2024/01/18 03:12:07;;;;;;;5.70;2.13;;;2.40;99.90;;;;;;5067218;28;20063;-78
2024/01/18 03:14:33;;;;;;;4.47;2.03;;;2.60;99.90;;;;;;5047992;28;20048;-81
2024/01/18 03:16:59;;;;;;;5.35;1.98;;;2.20;99.90;;;;;;5034495;28;20040;-78
2024/01/18 03:19:25;;;;;;;6.88;2.85;;;2.10;99.90;;;;;;5068082;28;20151;-78
2024/01/18 03:21:50;;;;;;;8.98;2.97;;;2.90;99.90;;;;;;5067836;28;20504;-78
2024/01/18 03:24:16;;;;;;;5.47;2.50;;;2.50;99.90;;;;;;5057862;28;20045;-79
2024/01/18 03:26:42;;;;;;;5.45;2.22;;;2.10;99.90;;;;;;5015074;28;20069;-81
2024/01/18 03:29:10;;;;;;;5.22;2.30;;;2.00;99.90;;;;;;5035944;28;20072;-77
2024/01/18 03:31:36;;;;;;;5.88;2.17;;;2.40;99.90;;;;;;5051930;28;20037;-78
2024/01/18 03:34:02;;;;;;;3.40;2.20;;;2.80;99.90;;;;;;5037658;28;20039;-80
2024/01/18 03:36:28;;;;;;;8.38;2.67;;;2.60;99.90;;;;;;5019535;28;20049;-82
2024/01/18 03:38:53;;;;;;;4.85;2.20;;;2.30;99.90;;;;;;5018592;28;20037;-81
2024/01/18 03:41:19;;;;;;;9.40;2.85;;;2.60;99.90;;;;;;5041851;28;20081;-80
2024/01/18 03:43:45;;;;;;;10.98;2.45;;;2.20;99.90;;;;;;5038883;28;20494;-78
2024/01/18 03:46:16;;;;;;;10.73;2.70;;;2.30;99.90;;;;;;5051893;28;20048;-77
2024/01/18 03:48:42;;;;;;;7.63;2.15;;;2.60;99.90;;;;;;5036435;28;20568;-80
2024/01/18 03:51:08;;;;;;;12.15;2.30;;;2.10;99.90;;;;;;5037598;28;20037;-78
2024/01/18 03:53:36;;;;;;;5.55;1.67;;;3.30;99.90;;;;;;5055236;28;20036;-79
2024/01/18 03:56:02;;;;;;;6.53;1.98;;;3.80;99.90;;;;;;5070155;28;20052;-78
2024/01/18 03:58:27;;;;;;;4.90;1.83;;;2.90;99.90;;;;;;5038473;28;20052;-78
2024/01/18 04:00:53;;;;;;;2.35;1.48;;;3.20;99.90;;;;;;5054695;28;20043;-79
2024/01/18 04:03:20;;;;;;;6.53;1.63;;;3.20;99.90;;;;;;5054590;28;20122;-80
2024/01/18 04:05:46;;;;;;;6.35;1.58;;;2.90;99.90;;;;;;5045707;28;20032;-82
2024/01/18 04:08:11;;;;;;;5.10;1.98;;;2.70;99.90;;;;;;5051733;28;20502;-81
2024/01/18 04:10:37;;;;;;;7.95;1.60;;;2.70;99.90;;;;;;5017941;28;20056;-83
2024/01/18 04:13:03;;;;;;;3.55;1.23;;;2.80;99.90;;;;;;5018731;28;20047;-82
2024/01/18 04:15:29;;;;;;;3.63;1.40;;;2.50;99.90;;;;;;5046516;28;20393;-80
2024/01/18 04:17:55;;;;;;;7.45;1.48;;;2.70;99.90;;;;;;5054086;28;20114;-81
2024/01/18 04:20:26;;;;;;;4.03;1.30;;;3.10;99.90;;;;;;5054841;28;20048;-81
2024/01/18 04:22:52;;;;;;;5.35;1.30;;;2.60;99.90;;;;;;5054396;28;20036;-79
2024/01/18 04:25:17;;;;;;;4.53;1.10;;;2.70;99.90;;;;;;5052758;28;20049;-82
2024/01/18 04:27:43;;;;;;;6.35;1.55;;;2.70;99.90;;;;;;5070501;28;20040;-83
2024/01/18 04:30:09;;;;;;;3.83;1.13;;;3.00;99.90;;;;;;5038063;28;20123;-79
2024/01/18 04:32:35;;;;;;;4.70;1.10;;;2.70;99.90;;;;;;5037172;28;20048;-81
2024/01/18 04:35:00;;;;;;;5.18;1.30;;;4.30;99.90;;;;;;5071111;28;20040;-80
2024/01/18 04:37:26;;;;;;;2.40;1.00;;;2.80;99.90;;;;;;5066960;28;20076;-82
2024/01/18 04:39:52;;;;;;;5.43;1.83;;;2.80;99.90;;;;;;5019363;28;20546;-80
2024/01/18 04:42:18;;;;;;;8.38;1.95;;;2.80;99.90;;;;;;5054540;28;20087;-80
2024/01/18 04:44:43;;;;;;;6.55;1.25;;;2.90;99.90;;;;;;5070771;28;20105;-80
2024/01/18 04:47:09;;;;;;;5.03;1.20;;;2.60;99.90;;;;;;5040070;28;20051;-78
2024/01/18 04:49:35;;;;;;;8.27;1.52;;;2.60;99.90;;;;;;5056747;28;20051;-81
2024/01/18 04:52:01;;;;;;;4.82;1.33;;;2.60;99.90;;;;;;5021543;28;20123;-81
2024/01/18 04:54:26;;;;;;;4.63;1.27;;;3.00;99.90;;;;;;5057234;28;20033;-79
2024/01/18 04:56:52;;;;;;;4.60;1.25;;;2.70;99.90;;;;;;5071517;28;20079;-83
2024/01/18 04:59:18;;;;;;;2.80;1.10;;;4.10;99.90;;;;;;5073438;28;20032;-82
2024/01/18 05:01:44;;;;;;;4.68;1.27;;;2.80;99.90;;;;;;5037852;28;20044;-80
2024/01/18 05:04:09;;;;;;;4.85;1.33;;;3.40;99.90;;;;;;5038150;28;20045;-81
2024/01/18 05:06:35;;;;;;;4.18;1.35;;;2.80;99.90;;;;;;5021718;28;20033;-81
2024/01/18 05:09:01;;;;;;;3.88;1.38;;;2.50;99.90;;;;;;5035833;28;20064;-81
2024/01/18 05:11:27;;;;;;;4.28;1.35;;;2.70;99.90;;;;;;5063168;28;20062;-80
2024/01/18 05:13:53;;;;;;;4.55;1.75;;;2.70;99.90;;;;;;5070433;28;20052;-80
2024/01/18 05:16:19;;;;;;;4.53;1.75;;;2.60;99.90;;;;;;5070642;28;20072;-79
2024/01/18 05:18:46;;;;;;;6.15;1.20;;;2.80;99.90;;;;;;5052213;28;20502;-81
2024/01/18 05:21:11;;;;;;;4.57;1.85;;;4.00;99.90;;;;;;5039855;28;20045;-79
2024/01/18 05:23:37;;;;;;;5.72;1.60;;;3.10;99.90;;;;;;5033841;28;20041;-83
2024/01/18 05:26:04;;;;;;;3.47;1.40;;;3.20;99.90;;;;;;5017607;28;20549;-81
2024/01/18 05:28:29;;;;;;;5.45;1.77;;;3.30;99.90;;;;;;5034349;28;20051;-80
2024/01/18 05:30:56;;;;;;;5.32;1.40;;;3.30;99.90;;;;;;5037456;28;20127;-80
2024/01/18 05:33:22;;;;;;;5.30;1.40;;;3.80;99.90;;;;;;5072033;28;20086;-85
2024/01/18 05:35:48;;;;;;;7.15;1.50;;;3.50;99.90;;;;;;5055210;28;20032;-79
2024/01/18 05:38:17;;;;;;;3.35;1.35;;;3.20;99.90;;;;;;5055551;28;20048;-81
2024/01/18 05:40:45;;;;;;;5.05;1.73;;;2.90;99.90;;;;;;5051739;28;20405;-81
2024/01/18 05:43:10;;;;;;;3.17;2.03;;;3.10;99.90;;;;;;5035774;28;20120;-83
2024/01/18 05:45:36;;;;;;;5.93;1.80;;;3.60;99.90;;;;;;5053373;28;20131;-81
2024/01/18 05:48:02;;;;;;;4.13;1.60;;;2.90;99.90;;;;;;5071077;28;20064;-80
2024/01/18 05:50:28;;;;;;;4.65;1.80;;;3.20;99.90;;;;;;5053343;28;20123;-81
2024/01/18 05:52:53;;;;;;;5.65;2.08;;;3.30;99.90;;;;;;5019519;28;20115;-80
2024/01/18 05:55:19;;;;;;;4.47;2.13;;;3.30;99.90;;;;;;5052867;28;20135;-79
2024/01/18 05:57:45;;;;;;;5.20;2.30;;;3.20;99.90;;;;;;5052879;28;20048;-82
2024/01/18 06:00:12;;;;;;;4.32;2.30;;;3.50;99.90;;;;;;5037349;28;20051;-82
2024/01/18 06:02:38;;;;;;;5.68;2.00;;;3.40;99.90;;;;;;5050259;28;20033;-83
2024/01/18 06:05:04;;;;;;;6.93;1.77;;;4.50;99.90;;;;;;5053697;28;20044;-85
2024/01/18 06:07:30;;;;;;;6.90;1.70;;;3.10;99.90;;;;;;5037018;28;20033;-82
2024/01/18 06:09:55;;;;;;;6.95;1.50;;;3.40;99.90;;;;;;5036517;28;20113;-81
2024/01/18 06:12:21;;;;;;;3.45;1.42;;;3.50;99.90;;;;;;5050525;28;20052;-82
2024/01/18 06:14:47;;;;;;;3.20;1.60;;;3.00;99.90;;;;;;5035949;28;20053;-81
2024/01/18 06:17:12;;;;;;;9.52;1.88;;;2.90;99.90;;;;;;5069857;28;20040;-81
2024/01/18 06:19:38;;;;;;;5.85;1.38;;;3.10;99.90;;;;;;5036557;28;20175;-81
2024/01/18 06:22:04;;;;;;;3.75;1.50;;;3.50;99.90;;;;;;5019051;28;20676;-82
2024/01/18 06:24:30;;;;;;;3.30;1.42;;;2.80;99.90;;;;;;5052729;28;20056;-80
2024/01/18 06:26:56;;;;;;;5.45;1.20;;;3.50;99.90;;;;;;5036512;28;20668;-81
2024/01/18 06:29:26;;;;;;;4.80;1.55;;;2.90;99.90;;;;;;5036549;28;20068;-83
2024/01/18 06:31:52;;;;;;;4.53;1.30;;;3.60;99.90;;;;;;5053313;28;20044;-82
2024/01/18 06:34:18;;;;;;;3.92;1.30;;;3.40;99.90;;;;;;5039569;28;20114;-81
2024/01/18 06:36:44;;;;;;;8.98;1.83;;;3.20;99.90;;;;;;5051297;28;20516;-86
2024/01/18 06:39:10;;;;;;;3.72;1.30;;;2.50;99.90;;;;;;5069625;28;20098;-80
2024/01/18 06:41:36;;;;;;;4.55;1.40;;;2.50;99.90;;;;;;5036055;28;20401;-80
2024/01/18 06:44:02;;;;;;;3.85;1.63;;;3.40;99.90;;;;;;5024996;28;20049;-80
2024/01/18 06:46:29;;;;;;;4.35;1.40;;;3.40;99.90;;;;;;5018065;28;20568;-82
2024/01/18 06:48:57;;;;;;;8.48;1.60;;;2.70;99.90;;;;;;5065937;28;20037;-80
2024/01/18 06:51:23;;;;;;;2.58;1.25;;;3.10;99.90;;;;;;5067288;28;20078;-81
2024/01/18 06:53:49;;;;;;;4.13;1.10;;;3.20;99.90;;;;;;5049036;28;20447;-84
2024/01/18 06:56:16;;;;;;;3.53;1.40;;;2.90;99.90;;;;;;5070289;28;20476;-86
2024/01/18 06:58:43;;;;;;;2.95;1.45;;;2.20;99.90;;;;;;5058642;28;20432;-85
2024/01/18 07:01:10;;;;;;;6.53;1.90;;;2.70;99.90;;;;;;5055647;28;20076;-84
2024/01/18 07:03:36;;;;;;;4.97;1.30;;;2.90;99.90;;;;;;5054389;28;20422;-84
2024/01/18 07:06:05;;;;;;;5.28;1.73;;;3.80;99.90;;;;;;5053067;28;20044;-84
2024/01/18 07:08:31;;;;;;;5.07;1.98;;;2.50;99.90;;;;;;5045385;28;20043;-84
2024/01/18 07:10:57;;;;;;;5.50;2.00;;;2.90;99.90;;;;;;5067533;28;20501;-80
2024/01/18 07:13:26;;;;;;;4.53;1.95;;;2.40;99.90;;;;;;5034035;28;20052;-85
2024/01/18 07:15:58;;;;;;;3.78;1.85;;;4.10;99.90;;;;;;5068972;28;20057;-83
2024/01/18 07:18:24;;;;;;;4.13;1.40;;;2.70;99.90;;;;;;5052700;28;20094;-82
2024/01/18 07:20:49;;;;;;;3.78;1.23;;;3.20;99.90;;;;;;5032183;28;20496;-85
2024/01/18 07:23:15;;;;;;;5.38;1.20;;;3.40;99.90;;;;;;5035304;28;20334;-82
2024/01/18 07:25:43;;;;;;;5.30;1.17;;;3.30;99.90;;;;;;5025501;28;20529;-84
2024/01/18 07:28:10;;;;;;;3.08;1.05;;;3.60;99.90;;;;;;5069373;28;20047;-85
2024/01/18 07:30:36;;;;;;;3.35;1.00;;;3.60;99.90;;;;;;5035575;28;20047;-85
2024/01/18 07:33:02;;;;;;;3.47;1.30;;;3.40;99.90;;;;;;5031751;28;20053;-81
2024/01/18 07:35:28;;;;;;;3.58;1.05;;;3.80;99.90;;;;;;5044436;28;20498;-81
2024/01/18 07:37:54;;;;;;;3.10;1.20;;;3.80;99.90;;;;;;5052445;28;20477;-83
2024/01/18 07:40:19;;;;;;;8.07;1.20;;;4.30;99.90;;;;;;5034333;28;20045;-81
2024/01/18 07:42:45;;;;;;;8.77;1.60;;;3.70;99.90;;;;;;5035872;28;20063;-81
2024/01/18 07:45:14;;;;;;;3.10;1.48;;;3.80;99.90;;;;;;5030071;28;20041;-82
2024/01/18 07:47:40;;;;;;;6.38;1.40;;;3.50;99.90;;;;;;5025806;28;20488;-82
2024/01/18 07:50:08;;;;;;;3.78;1.20;;;3.70;99.90;;;;;;5021868;28;20047;-82
2024/01/18 07:52:34;;;;;;;5.68;1.50;;;3.70;99.90;;;;;;5036538;28;20541;-79
2024/01/18 07:54:59;;;;;;;6.57;1.58;;;4.70;99.90;;;;;;5037272;28;20051;-83
2024/01/18 07:57:25;;;;;;;9.40;1.75;;;3.60;99.90;;;;;;5052729;28;20537;-82
2024/01/18 07:59:51;;;;;;;4.60;1.80;;;3.60;99.90;;;;;;5053237;28;20439;-82
2024/01/18 08:02:17;;;;;;;10.57;2.35;;;3.20;99.90;;;;;;5036994;28;20075;-86
2024/01/18 08:04:43;;;;;;;4.47;2.05;;;3.60;99.90;;;;;;5032508;28;20664;-84
2024/01/18 08:07:10;;;;;;;12.63;6.20;;;3.20;99.90;;;;;;5048860;28;20039;-83
2024/01/18 08:09:38;;;;;;;7.82;4.88;;;3.60;99.90;;;;;;5069143;28;20040;-81
2024/01/18 08:12:04;;;;;;;12.65;9.88;;;3.20;99.90;;;;;;5051516;28;20043;-80
2024/01/18 08:14:30;;;;;;;9.73;6.15;;;3.60;99.90;;;;;;5066105;28;20102;-82
2024/01/18 08:16:56;;;;;;;9.27;6.40;;;3.40;99.90;;;;;;5034258;28;20040;-86
2024/01/18 08:19:22;;;;;;;5.97;4.72;;;3.30;99.90;;;;;;5042881;28;20029;-82
2024/01/18 08:21:48;;;;;;;9.25;5.95;;;3.60;99.90;;;;;;5036421;28;20048;-82
2024/01/18 08:24:13;;;;;;;18.90;8.27;;;3.20;99.90;;;;;;5036782;28;20037;-82
2024/01/18 08:26:40;;;;;;;9.02;3.35;;;3.60;99.90;;;;;;5035036;28;20083;-84
2024/01/18 08:29:06;;;;;;;6.50;3.13;;;3.70;99.90;;;;;;5055912;28;20490;-86
2024/01/18 08:31:32;;;;;;;8.15;4.00;;;4.10;99.90;;;;;;5023146;28;20036;-83
2024/01/18 08:33:57;;;;;;;7.50;4.05;;;3.10;99.90;;;;;;5071455;28;20063;-83
2024/01/18 08:36:23;;;;;;;11.85;3.95;;;4.00;99.90;;;;;;5056757;28;20048;-84
2024/01/18 08:38:50;;;;;;;8.82;3.42;;;3.80;99.90;;;;;;5055751;28;20079;-83
2024/01/18 08:41:16;;;;;;;6.38;3.08;;;4.10;99.90;;;;;;5056693;28;20041;-86
2024/01/18 08:43:42;;;;;;;4.22;2.65;;;3.50;99.90;;;;;;5056256;28;20633;-85
2024/01/18 08:46:08;;;;;;;7.30;2.45;;;3.60;99.90;;;;;;5022834;28;20049;-83
2024/01/18 08:48:37;;;;;;;6.03;2.55;;;3.80;99.90;;;;;;5042090;28;20041;-81
2024/01/18 08:51:03;;;;;;;10.05;3.20;;;4.20;99.90;;;;;;5055772;28;20043;-82
2024/01/18 08:53:29;;;;;;;7.72;3.78;;;4.10;99.90;;;;;;5035235;28;20033;-83
2024/01/18 08:55:55;;;;;;;13.82;3.92;;;3.70;99.90;;;;;;5038012;28;20542;-84
2024/01/18 08:58:21;;;;;;;8.65;3.90;;;4.00;99.90;;;;;;5053571;28;20133;-83
2024/01/18 09:00:47;;;;;;;7.28;3.20;;;4.20;99.90;;;;;;5055745;28;20464;-82
2024/01/18 09:03:13;;;;;;;8.43;3.03;;;3.70;99.90;;;;;;5065011;28;20473;-76
2024/01/18 09:05:41;;;;;;;8.68;3.22;;;4.00;99.90;;;;;;5054746;28;20697;-83
2024/01/18 09:08:07;;;;;;;9.00;3.40;;;4.20;99.90;;;;;;5055291;28;20044;-84
2024/01/18 09:10:33;;;;;;;7.10;2.80;;;4.20;99.90;;;;;;5056054;28;20419;-85
2024/01/18 09:12:59;;;;;;;10.50;6.60;;;3.80;99.90;;;;;;5055363;28;20061;-82
2024/01/18 09:15:25;;;;;;;8.30;5.55;;;4.20;99.90;;;;;;5055979;28;20382;-84
2024/01/18 09:17:51;;;;;;;8.77;4.60;;;2.40;99.90;;;;;;5055959;28;20051;-83
2024/01/18 09:20:17;;;;;;;10.57;3.92;;;3.60;99.90;;;;;;5039862;28;20131;-86
2024/01/18 09:22:43;;;;;;;7.60;3.40;;;4.20;99.90;;;;;;5055144;28;20066;-82
2024/01/18 09:25:09;;;;;;;5.30;2.40;;;4.80;99.90;;;;;;5083611;28;20040;-85
2024/01/18 09:27:35;;;;;;;6.72;2.60;;;4.30;99.90;;;;;;5058169;28;20036;-81
2024/01/18 09:30:00;;;;;;;6.10;2.85;;;4.90;99.90;;;;;;5055098;28;20552;-85
2024/01/18 09:32:26;;;;;;;8.77;2.38;;;5.10;99.90;;;;;;5046352;28;20044;-84
2024/01/18 09:34:52;;;;;;;4.15;1.80;;;6.00;99.90;;;;;;5050024;28;20076;-81
2024/01/18 09:37:17;;;;;;;6.50;1.98;;;6.20;99.90;;;;;;5024586;28;20413;-81
2024/01/18 09:39:45;;;;;;;5.07;2.53;;;5.70;99.90;;;;;;5030461;28;20072;-82
2024/01/18 09:42:16;;;;;;;6.63;2.20;;;6.20;99.90;;;;;;5052752;28;20117;-81
2024/01/18 09:44:47;;;;;;;3.85;2.00;;;7.00;99.90;;;;;;5053164;28;20059;-80
2024/01/18 09:47:17;;;;;;;4.28;2.05;;;7.30;99.90;;;;;;5052536;28;20055;-80
2024/01/18 09:49:45;;;;;;;7.50;2.33;;;8.00;99.90;;;;;;5049724;28;20037;-80
2024/01/18 09:52:12;;;;;;;4.85;2.25;;;8.60;99.90;;;;;;5068423;28;20087;-80
2024/01/18 09:54:38;;;;;;;4.28;2.03;;;7.90;99.90;;;;;;5066669;28;20748;-79
2024/01/18 09:57:08;;;;;;;3.72;1.90;;;8.10;89.20;;;;;;5051907;28;20428;-79
2024/01/18 09:59:38;;;;;;;4.75;1.80;;;8.50;4.30;;;;;;5035474;28;20041;-81
2024/01/18 10:02:04;;;;;;;4.90;1.92;;;8.10;37.80;;;;;;5035247;28;20118;-79
2024/01/18 10:04:31;;;;;;;2.85;1.65;;;9.00;23.50;;;;;;5064365;28;20131;-78
2024/01/18 10:06:57;;;;;;;7.47;1.73;;;8.60;1.00;;;;;;5050721;28;20372;-77
2024/01/18 10:09:23;;;;;;;2.72;1.67;;;8.70;1.00;;;;;;5067841;28;20040;-79
2024/01/18 10:11:48;;;;;;;1.85;0.80;;;7.60;1.00;;;;;;5062419;28;20119;-79
2024/01/18 10:14:14;;;;;;;1.88;0.82;;;7.10;1.00;;;;;;5049046;28;20052;-78
2024/01/18 10:16:41;;;;;;;1.88;0.80;;;6.10;71.00;;;;;;5045886;28;20090;-80
2024/01/18 10:19:15;;;;;;;3.33;1.02;;;5.60;99.90;;;;;;5052023;28;20032;-79
2024/01/18 10:21:41;;;;;;;3.17;0.77;;;5.20;1.00;;;;;;5047812;28;20048;-78
2024/01/18 10:24:12;;;;;;;5.70;0.80;;;5.30;63.90;;;;;;5047895;28;20047;-79
2024/01/18 10:26:38;;;;;;;3.00;0.65;;;5.00;99.90;;;;;;5060453;28;20124;-79
2024/01/18 10:29:06;;;;;;;1.35;0.70;;;5.50;99.90;;;;;;5063272;28;20119;-79
2024/01/18 10:31:32;;;;;;;4.70;1.17;;;5.20;79.70;;;;;;5034739;28;20036;-80
2024/01/18 10:33:57;;;;;;;2.97;0.80;;;5.30;46.60;;;;;;5063744;28;20199;-79
2024/01/18 10:36:24;;;;;;;7.72;1.00;;;5.50;26.10;;;;;;5065301;28;20150;-80
2024/01/18 10:38:49;;;;;;;8.48;0.95;;;5.50;17.60;;;;;;5053459;28;20050;-79
2024/01/18 10:41:21;;;;;;;5.07;1.08;;;5.60;17.50;;;;;;5068285;28;20036;-79
2024/01/18 10:43:48;;;;;;;3.88;1.00;;;5.50;2.50;;;;;;5067175;28;20032;-81
2024/01/18 10:46:14;;;;;;;4.80;0.93;;;5.50;47.70;;;;;;5050937;28;20131;-81
2024/01/18 10:48:46;;;;;;;2.45;0.95;;;5.30;99.90;;;;;;5068653;28;20037;-80
2024/01/18 10:51:12;;;;;;;2.20;0.68;;;5.60;99.90;;;;;;5068869;28;20032;-79
2024/01/18 10:53:38;;;;;;;3.97;0.88;;;5.80;99.90;;;;;;5050318;28;20163;-79
2024/01/18 10:56:04;;;;;;;2.55;0.70;;;6.00;99.90;;;;;;5049319;28;20529;-79
2024/01/18 10:58:31;;;;;;;2.13;0.77;;;6.00;99.90;;;;;;5034491;28;20043;-80
2024/01/18 11:00:57;;;;;;;0.98;0.50;;;6.10;99.90;;;;;;5035159;28;20439;-81
2024/01/18 11:03:23;;;;;;;1.40;0.70;;;6.10;99.90;;;;;;5050028;28;20115;-78
2024/01/18 11:05:49;;;;;;;2.58;0.90;;;6.20;67.70;;;;;;5047236;28;20144;-78
2024/01/18 11:08:17;;;;;;;1.05;0.75;;;6.60;1.00;;;;;;5067432;28;20484;-79
2024/01/18 11:10:49;;;;;;;2.55;0.93;;;7.00;99.90;;;;;;5059256;28;20123;-79
2024/01/18 11:13:15;;;;;;;2.72;0.65;;;6.60;99.90;;;;;;5067022;28;20057;-78
2024/01/18 11:15:43;;;;;;;3.05;0.70;;;6.70;99.90;;;;;;5050376;28;20082;-78
2024/01/18 11:18:11;;;;;;;0.80;0.65;;;6.40;1.00;;;;;;5046541;28;20082;-78
2024/01/18 11:20:59;;;;;;;1.67;0.90;;;5.50;1.00;;;;;;5029864;28;20052;-80
2024/01/18 11:23:28;;;;;;;1.77;0.88;;;6.50;1.00;;;;;;5061721;28;20059;-76
2024/01/18 11:25:54;;;;;;;3.15;1.20;;;6.90;1.00;;;;;;5014858;28;20051;-78
2024/01/18 11:28:25;;;;;;;3.65;1.02;;;7.30;25.50;;;;;;5053799;28;20045;-78
2024/01/18 11:30:52;;;;;;;1.58;0.80;;;9.40;1.00;;;;;;5061572;28;20649;-76
2024/01/18 11:33:18;;;;;;;2.85;0.88;;;9.60;62.10;;;;;;5049964;28;20036;-78
2024/01/18 11:35:44;;;;;;;2.85;0.95;;;10.00;1.00;;;;;;5058685;28;20083;-77
2024/01/18 11:38:20;;;;;;;1.98;0.80;;;9.80;1.00;;;;;;5066677;28;20052;-77
2024/01/18 11:40:50;;;;;;;2.15;0.90;;;7.60;1.00;;;;;;5068000;28;20123;-77
2024/01/18 11:43:16;;;;;;;2.40;0.77;;;7.10;1.00;;;;;;5062477;28;20040;-76
2024/01/18 11:45:54;;;;;;;2.53;1.00;;;7.20;45.80;;;;;;5047477;28;20123;-76
2024/01/18 11:48:20;;;;;;;1.85;0.73;;;8.40;99.90;;;;;;5048942;28;20086;-79
2024/01/18 11:50:46;;;;;;;2.08;0.82;;;6.60;99.90;;;;;;5061487;28;20033;-80
2024/01/18 11:53:11;;;;;;;2.53;0.95;;;7.20;99.90;;;;;;5053431;28;20044;-77
2024/01/18 11:55:48;;;;;;;3.28;1.02;;;7.50;99.90;;;;;;5070048;28;20082;-78
2024/01/18 11:58:15;;;;;;;1.50;0.95;;;8.20;70.90;;;;;;5052396;28;20067;-78
2024/01/18 12:00:43;;;;;;;2.50;0.98;;;8.10;99.90;;;;;;5069547;28;20028;-77
2024/01/18 12:03:13;;;;;;;1.27;0.90;;;7.80;99.90;;;;;;5069959;28;20676;-76
2024/01/18 12:05:40;;;;;;;3.50;0.93;;;8.50;99.90;;;;;;5053711;28;20044;-79
2024/01/18 12:08:07;;;;;;;1.80;1.10;;;9.60;36.20;;;;;;5052620;28;20064;-77
2024/01/18 12:10:34;;;;;;;2.35;0.98;;;8.90;1.00;;;;;;5044963;28;20101;-78
2024/01/18 12:13:01;;;;;;;3.72;1.27;;;8.70;1.00;;;;;;5070096;28;20091;-78
2024/01/18 12:15:28;;;;;;;4.18;1.70;;;9.30;1.00;;;;;;5055552;28;20076;-76
2024/01/18 12:17:57;;;;;;;4.15;1.42;;;8.70;1.00;;;;;;5053478;28;20128;-78
2024/01/18 12:20:22;;;;;;;3.75;1.10;;;8.90;1.00;;;;;;5069592;28;20996;-80
2024/01/18 12:22:48;;;;;;;2.90;1.45;;;8.80;1.00;;;;;;5070110;28;20040;-76
2024/01/18 12:25:14;;;;;;;3.00;1.10;;;6.80;1.00;;;;;;5052681;28;20500;-77
2024/01/18 12:27:40;;;;;;;5.05;1.10;;;7.40;1.00;;;;;;5053305;28;20487;-77
2024/01/18 12:30:06;;;;;;;4.72;1.00;;;7.80;1.00;;;;;;5051277;28;20119;-78
2024/01/18 12:32:35;;;;;;;1.85;0.82;;;7.60;1.00;;;;;;5052801;28;20044;-76
2024/01/18 12:35:01;;;;;;;2.47;0.90;;;8.20;1.00;;;;;;5064947;28;20059;-77
2024/01/18 12:37:28;;;;;;;3.38;1.10;;;8.00;1.00;;;;;;5051265;28;20515;-80
2024/01/18 12:39:54;;;;;;;2.42;1.05;;;7.10;1.00;;;;;;5033175;28;20041;-77
2024/01/18 12:42:23;;;;;;;1.95;0.77;;;8.10;1.00;;;;;;5051503;28;20151;-77
2024/01/18 12:44:52;;;;;;;2.67;1.10;;;8.00;1.00;;;;;;5036685;28;20067;-77
2024/01/18 12:47:18;;;;;;;2.92;1.00;;;6.50;1.00;;;;;;5053164;28;20029;-78
2024/01/18 12:49:44;;;;;;;5.85;1.30;;;7.70;1.00;;;;;;5069720;28;20364;-79
2024/01/18 12:52:10;;;;;;;4.03;1.13;;;7.70;1.00;;;;;;5053109;28;20035;-78
2024/01/18 12:54:36;;;;;;;4.35;1.23;;;6.70;1.00;;;;;;5052177;28;20677;-77